sensor_id;sensor_type;location;lat;lon;timestamp;P1;durP1;ratioP1;P2;durP2;ratioP2
9124;SDS011;4597;48.730;9.114;2023-04-24T00:01:21;0.80;;;0.80;;
9124;SDS011;4597;48.730;9.114;2023-04-24T00:03:46;2.00;;;1.00;;
9124;SDS011;4597;48.730;9.114;2023-04-24T00:06:12;0.93;;;0.80;;
9124;SDS011;4597;48.730;9.114;2023-04-24T00:08:38;1.70;;;0.90;;
9124;SDS011;4597;48.730;9.114;2023-04-24T00:11:03;0.70;;;0.70;;
9124;SDS011;4597;48.730;9.114;2023-04-24T00:13:29;2.33;;;1.30;;
9124;SDS011;4597;48.730;9.114;2023-04-24T00:15:55;1.97;;;0.90;;
9124;SDS011;4597;48.730;9.114;2023-04-24T00:18:21;0.90;;;0.90;;
9124;SDS011;4597;48.730;9.114;2023-04-24T00:20:47;0.80;;;0.80;;
9124;SDS011;4597;48.730;9.114;2023-04-24T00:23:12;0.97;;;0.93;;
9124;SDS011;4597;48.730;9.114;2023-04-24T00:25:38;0.97;;;0.90;;
9124;SDS011;4597;48.730;9.114;2023-04-24T00:28:04;0.90;;;0.90;;
9124;SDS011;4597;48.730;9.114;2023-04-24T00:30:30;0.77;;;0.77;;
9124;SDS011;4597;48.730;9.114;2023-04-24T00:32:56;1.10;;;0.77;;
9124;SDS011;4597;48.730;9.114;2023-04-24T00:35:22;0.97;;;0.80;;
9124;SDS011;4597;48.730;9.114;2023-04-24T00:37:48;0.77;;;0.77;;
9124;SDS011;4597;48.730;9.114;2023-04-24T00:40:13;3.00;;;0.90;;
9124;SDS011;4597;48.730;9.114;2023-04-24T00:42:39;0.80;;;0.80;;
9124;SDS011;4597;48.730;9.114;2023-04-24T00:45:05;0.70;;;0.70;;
9124;SDS011;4597;48.730;9.114;2023-04-24T00:47:32;0.87;;;0.87;;
9124;SDS011;4597;48.730;9.114;2023-04-24T00:49:58;2.23;;;0.90;;
9124;SDS011;4597;48.730;9.114;2023-04-24T00:52:29;0.90;;;0.80;;
9124;SDS011;4597;48.730;9.114;2023-04-24T00:54:57;0.77;;;0.77;;
9124;SDS011;4597;48.730;9.114;2023-04-24T00:57:22;1.23;;;1.17;;
9124;SDS011;4597;48.730;9.114;2023-04-24T00:59:48;1.53;;;0.80;;
9124;SDS011;4597;48.730;9.114;2023-04-24T01:02:14;0.80;;;0.80;;
9124;SDS011;4597;48.730;9.114;2023-04-24T01:04:40;0.70;;;0.70;;
9124;SDS011;4597;48.730;9.114;2023-04-24T01:07:06;0.80;;;0.80;;
9124;SDS011;4597;48.730;9.114;2023-04-24T01:09:35;0.90;;;0.90;;
9124;SDS011;4597;48.730;9.114;2023-04-24T01:12:06;0.80;;;0.80;;
9124;SDS011;4597;48.730;9.114;2023-04-24T01:14:32;1.17;;;0.80;;
9124;SDS011;4597;48.730;9.114;2023-04-24T01:16:58;0.70;;;0.60;;
9124;SDS011;4597;48.730;9.114;2023-04-24T01:19:23;0.70;;;0.70;;
9124;SDS011;4597;48.730;9.114;2023-04-24T01:21:50;0.97;;;0.80;;
9124;SDS011;4597;48.730;9.114;2023-04-24T01:24:19;0.80;;;0.60;;
9124;SDS011;4597;48.730;9.114;2023-04-24T01:26:45;0.80;;;0.80;;
9124;SDS011;4597;48.730;9.114;2023-04-24T01:29:12;0.73;;;0.70;;
9124;SDS011;4597;48.730;9.114;2023-04-24T01:31:38;0.90;;;0.80;;
9124;SDS011;4597;48.730;9.114;2023-04-24T01:34:04;1.10;;;1.00;;
9124;SDS011;4597;48.730;9.114;2023-04-24T01:36:30;0.70;;;0.70;;
9124;SDS011;4597;48.730;9.114;2023-04-24T01:38:57;0.93;;;0.70;;
9124;SDS011;4597;48.730;9.114;2023-04-24T01:41:23;0.70;;;0.70;;
9124;SDS011;4597;48.730;9.114;2023-04-24T01:43:50;1.23;;;0.80;;
9124;SDS011;4597;48.730;9.114;2023-04-24T01:46:16;0.80;;;0.80;;
9124;SDS011;4597;48.730;9.114;2023-04-24T01:48:41;0.73;;;0.73;;
9124;SDS011;4597;48.730;9.114;2023-04-24T01:51:07;0.70;;;0.70;;
9124;SDS011;4597;48.730;9.114;2023-04-24T01:53:33;0.80;;;0.80;;
9124;SDS011;4597;48.730;9.114;2023-04-24T01:55:58;0.90;;;0.90;;
9124;SDS011;4597;48.730;9.114;2023-04-24T01:58:24;0.83;;;0.83;;
9124;SDS011;4597;48.730;9.114;2023-04-24T02:00:51;0.70;;;0.70;;
9124;SDS011;4597;48.730;9.114;2023-04-24T02:03:16;0.80;;;0.80;;
9124;SDS011;4597;48.730;9.114;2023-04-24T02:05:43;0.87;;;0.87;;
9124;SDS011;4597;48.730;9.114;2023-04-24T02:08:10;0.63;;;0.63;;
9124;SDS011;4597;48.730;9.114;2023-04-24T02:10:35;0.80;;;0.80;;
9124;SDS011;4597;48.730;9.114;2023-04-24T02:13:01;1.13;;;0.90;;
9124;SDS011;4597;48.730;9.114;2023-04-24T02:15:27;0.70;;;0.70;;
9124;SDS011;4597;48.730;9.114;2023-04-24T02:17:52;1.03;;;0.60;;
9124;SDS011;4597;48.730;9.114;2023-04-24T02:20:18;0.70;;;0.70;;
9124;SDS011;4597;48.730;9.114;2023-04-24T02:22:43;0.93;;;0.93;;
9124;SDS011;4597;48.730;9.114;2023-04-24T02:25:09;0.80;;;0.80;;
9124;SDS011;4597;48.730;9.114;2023-04-24T02:27:34;0.83;;;0.83;;
9124;SDS011;4597;48.730;9.114;2023-04-24T02:30:00;0.60;;;0.60;;
9124;SDS011;4597;48.730;9.114;2023-04-24T02:32:25;1.73;;;0.90;;
9124;SDS011;4597;48.730;9.114;2023-04-24T02:34:51;1.00;;;0.90;;
9124;SDS011;4597;48.730;9.114;2023-04-24T02:37:16;1.07;;;0.90;;
9124;SDS011;4597;48.730;9.114;2023-04-24T02:39:42;0.73;;;0.73;;
9124;SDS011;4597;48.730;9.114;2023-04-24T02:42:07;0.93;;;0.93;;
9124;SDS011;4597;48.730;9.114;2023-04-24T02:44:33;0.80;;;0.80;;
9124;SDS011;4597;48.730;9.114;2023-04-24T02:46:58;0.87;;;0.80;;
9124;SDS011;4597;48.730;9.114;2023-04-24T02:49:24;0.70;;;0.70;;
9124;SDS011;4597;48.730;9.114;2023-04-24T02:51:50;2.53;;;0.90;;
9124;SDS011;4597;48.730;9.114;2023-04-24T02:54:16;2.50;;;1.00;;
9124;SDS011;4597;48.730;9.114;2023-04-24T02:56:41;1.57;;;1.00;;
9124;SDS011;4597;48.730;9.114;2023-04-24T02:59:07;1.20;;;1.10;;
9124;SDS011;4597;48.730;9.114;2023-04-24T03:01:32;1.43;;;0.70;;
9124;SDS011;4597;48.730;9.114;2023-04-24T03:03:58;1.13;;;0.90;;
9124;SDS011;4597;48.730;9.114;2023-04-24T03:06:24;1.20;;;0.97;;
9124;SDS011;4597;48.730;9.114;2023-04-24T03:08:49;1.57;;;0.73;;
9124;SDS011;4597;48.730;9.114;2023-04-24T03:11:15;1.23;;;0.80;;
9124;SDS011;4597;48.730;9.114;2023-04-24T03:13:40;0.70;;;0.70;;
9124;SDS011;4597;48.730;9.114;2023-04-24T03:16:06;0.90;;;0.90;;
9124;SDS011;4597;48.730;9.114;2023-04-24T03:18:31;1.37;;;0.80;;
9124;SDS011;4597;48.730;9.114;2023-04-24T03:20:57;0.90;;;0.90;;
9124;SDS011;4597;48.730;9.114;2023-04-24T03:23:22;0.90;;;0.90;;
9124;SDS011;4597;48.730;9.114;2023-04-24T03:25:48;0.80;;;0.80;;
9124;SDS011;4597;48.730;9.114;2023-04-24T03:28:13;1.53;;;0.83;;
9124;SDS011;4597;48.730;9.114;2023-04-24T03:30:39;0.83;;;0.83;;
9124;SDS011;4597;48.730;9.114;2023-04-24T03:33:05;1.17;;;0.90;;
9124;SDS011;4597;48.730;9.114;2023-04-24T03:35:30;1.10;;;1.10;;
9124;SDS011;4597;48.730;9.114;2023-04-24T03:37:56;1.20;;;1.10;;
9124;SDS011;4597;48.730;9.114;2023-04-24T03:40:21;0.97;;;0.80;;
9124;SDS011;4597;48.730;9.114;2023-04-24T03:42:47;0.80;;;0.80;;
9124;SDS011;4597;48.730;9.114;2023-04-24T03:45:12;0.83;;;0.83;;
9124;SDS011;4597;48.730;9.114;2023-04-24T03:47:38;0.70;;;0.70;;
9124;SDS011;4597;48.730;9.114;2023-04-24T03:50:03;0.73;;;0.73;;
9124;SDS011;4597;48.730;9.114;2023-04-24T03:52:29;2.00;;;1.10;;
9124;SDS011;4597;48.730;9.114;2023-04-24T03:54:55;0.80;;;0.80;;
9124;SDS011;4597;48.730;9.114;2023-04-24T03:57:21;1.50;;;0.90;;
9124;SDS011;4597;48.730;9.114;2023-04-24T03:59:46;1.30;;;1.20;;
9124;SDS011;4597;48.730;9.114;2023-04-24T04:02:12;1.97;;;1.27;;
9124;SDS011;4597;48.730;9.114;2023-04-24T04:04:37;1.07;;;0.87;;
9124;SDS011;4597;48.730;9.114;2023-04-24T04:07:03;2.93;;;1.00;;
9124;SDS011;4597;48.730;9.114;2023-04-24T04:09:30;1.70;;;0.90;;
9124;SDS011;4597;48.730;9.114;2023-04-24T04:11:56;2.00;;;1.10;;
9124;SDS011;4597;48.730;9.114;2023-04-24T04:14:21;1.37;;;1.10;;
9124;SDS011;4597;48.730;9.114;2023-04-24T04:16:48;2.67;;;1.87;;
9124;SDS011;4597;48.730;9.114;2023-04-24T04:19:13;2.20;;;1.20;;
9124;SDS011;4597;48.730;9.114;2023-04-24T04:21:39;2.00;;;1.33;;
9124;SDS011;4597;48.730;9.114;2023-04-24T04:24:04;2.93;;;1.10;;
9124;SDS011;4597;48.730;9.114;2023-04-24T04:26:32;2.40;;;1.03;;
9124;SDS011;4597;48.730;9.114;2023-04-24T04:28:58;1.90;;;0.93;;
9124;SDS011;4597;48.730;9.114;2023-04-24T04:31:25;1.10;;;1.00;;
9124;SDS011;4597;48.730;9.114;2023-04-24T04:33:51;0.80;;;0.80;;
9124;SDS011;4597;48.730;9.114;2023-04-24T04:36:16;1.50;;;0.97;;
9124;SDS011;4597;48.730;9.114;2023-04-24T04:38:42;0.93;;;0.93;;
9124;SDS011;4597;48.730;9.114;2023-04-24T04:41:09;1.10;;;0.90;;
9124;SDS011;4597;48.730;9.114;2023-04-24T04:43:35;1.07;;;0.97;;
9124;SDS011;4597;48.730;9.114;2023-04-24T04:46:01;1.20;;;1.10;;
9124;SDS011;4597;48.730;9.114;2023-04-24T04:48:28;1.57;;;1.00;;
9124;SDS011;4597;48.730;9.114;2023-04-24T04:50:53;1.70;;;1.10;;
9124;SDS011;4597;48.730;9.114;2023-04-24T04:53:19;1.33;;;1.17;;
9124;SDS011;4597;48.730;9.114;2023-04-24T04:55:45;1.10;;;1.10;;
9124;SDS011;4597;48.730;9.114;2023-04-24T04:58:11;0.90;;;0.90;;
9124;SDS011;4597;48.730;9.114;2023-04-24T05:00:37;1.10;;;1.10;;
9124;SDS011;4597;48.730;9.114;2023-04-24T05:03:02;3.00;;;1.47;;
9124;SDS011;4597;48.730;9.114;2023-04-24T05:05:28;2.00;;;1.13;;
9124;SDS011;4597;48.730;9.114;2023-04-24T05:07:54;1.60;;;1.30;;
9124;SDS011;4597;48.730;9.114;2023-04-24T05:10:19;1.37;;;1.33;;
9124;SDS011;4597;48.730;9.114;2023-04-24T05:12:45;1.67;;;1.40;;
9124;SDS011;4597;48.730;9.114;2023-04-24T05:15:10;1.30;;;1.30;;
9124;SDS011;4597;48.730;9.114;2023-04-24T05:17:36;1.43;;;1.30;;
9124;SDS011;4597;48.730;9.114;2023-04-24T05:20:02;6.23;;;1.73;;
9124;SDS011;4597;48.730;9.114;2023-04-24T05:22:30;1.67;;;1.57;;
9124;SDS011;4597;48.730;9.114;2023-04-24T05:24:56;2.20;;;1.73;;
9124;SDS011;4597;48.730;9.114;2023-04-24T05:27:22;1.57;;;1.47;;
9124;SDS011;4597;48.730;9.114;2023-04-24T05:29:47;2.20;;;1.43;;
9124;SDS011;4597;48.730;9.114;2023-04-24T05:32:13;1.77;;;1.63;;
9124;SDS011;4597;48.730;9.114;2023-04-24T05:34:38;2.77;;;1.60;;
9124;SDS011;4597;48.730;9.114;2023-04-24T05:37:04;1.87;;;1.77;;
9124;SDS011;4597;48.730;9.114;2023-04-24T05:39:33;1.60;;;1.50;;
9124;SDS011;4597;48.730;9.114;2023-04-24T05:42:00;1.53;;;1.50;;
9124;SDS011;4597;48.730;9.114;2023-04-24T05:44:26;1.40;;;1.30;;
9124;SDS011;4597;48.730;9.114;2023-04-24T05:46:51;1.40;;;1.30;;
9124;SDS011;4597;48.730;9.114;2023-04-24T05:49:17;1.77;;;1.67;;
9124;SDS011;4597;48.730;9.114;2023-04-24T05:51:42;1.47;;;1.40;;
9124;SDS011;4597;48.730;9.114;2023-04-24T05:54:08;1.73;;;1.60;;
9124;SDS011;4597;48.730;9.114;2023-04-24T05:56:33;1.50;;;1.40;;
9124;SDS011;4597;48.730;9.114;2023-04-24T05:58:59;1.70;;;1.60;;
9124;SDS011;4597;48.730;9.114;2023-04-24T06:01:24;1.40;;;1.40;;
9124;SDS011;4597;48.730;9.114;2023-04-24T06:03:50;1.70;;;1.60;;
9124;SDS011;4597;48.730;9.114;2023-04-24T06:06:15;1.60;;;1.60;;
9124;SDS011;4597;48.730;9.114;2023-04-24T06:08:41;1.67;;;1.57;;
9124;SDS011;4597;48.730;9.114;2023-04-24T06:11:08;2.83;;;2.00;;
9124;SDS011;4597;48.730;9.114;2023-04-24T06:13:34;1.70;;;1.67;;
9124;SDS011;4597;48.730;9.114;2023-04-24T06:16:00;1.87;;;1.77;;
9124;SDS011;4597;48.730;9.114;2023-04-24T06:18:25;2.20;;;2.00;;
9124;SDS011;4597;48.730;9.114;2023-04-24T06:20:51;1.63;;;1.53;;
9124;SDS011;4597;48.730;9.114;2023-04-24T06:23:16;1.80;;;1.70;;
9124;SDS011;4597;48.730;9.114;2023-04-24T06:25:42;1.90;;;1.80;;
9124;SDS011;4597;48.730;9.114;2023-04-24T06:28:08;1.90;;;1.80;;
9124;SDS011;4597;48.730;9.114;2023-04-24T06:30:33;2.40;;;2.10;;
9124;SDS011;4597;48.730;9.114;2023-04-24T06:32:59;2.10;;;2.00;;
9124;SDS011;4597;48.730;9.114;2023-04-24T06:35:24;1.73;;;1.60;;
9124;SDS011;4597;48.730;9.114;2023-04-24T06:37:50;2.27;;;1.93;;
9124;SDS011;4597;48.730;9.114;2023-04-24T06:40:16;2.00;;;1.90;;
9124;SDS011;4597;48.730;9.114;2023-04-24T06:42:43;1.87;;;1.70;;
9124;SDS011;4597;48.730;9.114;2023-04-24T06:45:09;1.83;;;1.73;;
9124;SDS011;4597;48.730;9.114;2023-04-24T06:47:35;1.83;;;1.73;;
9124;SDS011;4597;48.730;9.114;2023-04-24T06:50:01;2.57;;;2.37;;
9124;SDS011;4597;48.730;9.114;2023-04-24T06:52:26;6.10;;;2.33;;
9124;SDS011;4597;48.730;9.114;2023-04-24T06:54:51;2.10;;;1.90;;
9124;SDS011;4597;48.730;9.114;2023-04-24T06:57:17;1.97;;;1.83;;
9124;SDS011;4597;48.730;9.114;2023-04-24T06:59:43;2.17;;;1.80;;
9124;SDS011;4597;48.730;9.114;2023-04-24T07:02:08;2.23;;;2.07;;
9124;SDS011;4597;48.730;9.114;2023-04-24T07:04:34;1.97;;;1.87;;
9124;SDS011;4597;48.730;9.114;2023-04-24T07:06:59;2.00;;;1.80;;
9124;SDS011;4597;48.730;9.114;2023-04-24T07:09:25;3.23;;;2.27;;
9124;SDS011;4597;48.730;9.114;2023-04-24T07:11:52;2.50;;;2.10;;
9124;SDS011;4597;48.730;9.114;2023-04-24T07:14:18;2.40;;;2.30;;
9124;SDS011;4597;48.730;9.114;2023-04-24T07:16:44;1.87;;;1.77;;
9124;SDS011;4597;48.730;9.114;2023-04-24T07:19:10;2.10;;;1.90;;
9124;SDS011;4597;48.730;9.114;2023-04-24T07:21:36;2.13;;;1.80;;
9124;SDS011;4597;48.730;9.114;2023-04-24T07:24:01;3.27;;;1.87;;
9124;SDS011;4597;48.730;9.114;2023-04-24T07:26:28;1.73;;;1.63;;
9124;SDS011;4597;48.730;9.114;2023-04-24T07:28:54;1.80;;;1.70;;
9124;SDS011;4597;48.730;9.114;2023-04-24T07:31:20;1.50;;;1.50;;
9124;SDS011;4597;48.730;9.114;2023-04-24T07:33:46;3.07;;;1.90;;
9124;SDS011;4597;48.730;9.114;2023-04-24T07:36:11;2.00;;;1.70;;
9124;SDS011;4597;48.730;9.114;2023-04-24T07:38:47;1.90;;;1.60;;
9124;SDS011;4597;48.730;9.114;2023-04-24T07:41:13;2.67;;;1.80;;
9124;SDS011;4597;48.730;9.114;2023-04-24T07:43:39;4.23;;;1.80;;
9124;SDS011;4597;48.730;9.114;2023-04-24T07:46:05;2.87;;;1.50;;
9124;SDS011;4597;48.730;9.114;2023-04-24T07:48:31;3.47;;;1.70;;
9124;SDS011;4597;48.730;9.114;2023-04-24T07:50:57;1.97;;;1.77;;
9124;SDS011;4597;48.730;9.114;2023-04-24T07:53:23;1.73;;;1.50;;
9124;SDS011;4597;48.730;9.114;2023-04-24T07:55:48;1.83;;;1.73;;
9124;SDS011;4597;48.730;9.114;2023-04-24T07:58:14;2.07;;;1.83;;
9124;SDS011;4597;48.730;9.114;2023-04-24T08:00:40;1.33;;;1.23;;
9124;SDS011;4597;48.730;9.114;2023-04-24T08:03:05;2.47;;;1.53;;
9124;SDS011;4597;48.730;9.114;2023-04-24T08:05:31;2.10;;;1.40;;
9124;SDS011;4597;48.730;9.114;2023-04-24T08:07:56;1.60;;;1.50;;
9124;SDS011;4597;48.730;9.114;2023-04-24T08:10:22;1.67;;;1.57;;
9124;SDS011;4597;48.730;9.114;2023-04-24T08:12:48;1.87;;;1.77;;
9124;SDS011;4597;48.730;9.114;2023-04-24T08:15:14;1.97;;;1.60;;
9124;SDS011;4597;48.730;9.114;2023-04-24T08:17:39;1.70;;;1.57;;
9124;SDS011;4597;48.730;9.114;2023-04-24T08:20:05;1.80;;;1.70;;
9124;SDS011;4597;48.730;9.114;2023-04-24T08:22:35;3.83;;;1.60;;
9124;SDS011;4597;48.730;9.114;2023-04-24T08:25:00;1.80;;;1.70;;
9124;SDS011;4597;48.730;9.114;2023-04-24T08:27:26;1.73;;;1.50;;
9124;SDS011;4597;48.730;9.114;2023-04-24T08:29:53;1.67;;;1.57;;
9124;SDS011;4597;48.730;9.114;2023-04-24T08:32:19;1.63;;;1.53;;
9124;SDS011;4597;48.730;9.114;2023-04-24T08:34:44;3.10;;;1.30;;
9124;SDS011;4597;48.730;9.114;2023-04-24T08:37:10;1.97;;;1.87;;
9124;SDS011;4597;48.730;9.114;2023-04-24T08:39:36;2.20;;;1.33;;
9124;SDS011;4597;48.730;9.114;2023-04-24T08:42:02;1.10;;;1.10;;
9124;SDS011;4597;48.730;9.114;2023-04-24T08:44:32;1.47;;;1.30;;
9124;SDS011;4597;48.730;9.114;2023-04-24T08:46:58;2.67;;;1.30;;
9124;SDS011;4597;48.730;9.114;2023-04-24T08:49:25;1.83;;;1.40;;
9124;SDS011;4597;48.730;9.114;2023-04-24T08:51:53;2.47;;;1.50;;
9124;SDS011;4597;48.730;9.114;2023-04-24T08:54:18;4.60;;;1.67;;
9124;SDS011;4597;48.730;9.114;2023-04-24T08:56:44;3.67;;;1.40;;
9124;SDS011;4597;48.730;9.114;2023-04-24T08:59:10;2.03;;;1.17;;
9124;SDS011;4597;48.730;9.114;2023-04-24T09:01:36;1.00;;;1.00;;
9124;SDS011;4597;48.730;9.114;2023-04-24T09:04:04;1.57;;;1.47;;
9124;SDS011;4597;48.730;9.114;2023-04-24T09:06:34;1.40;;;1.30;;
9124;SDS011;4597;48.730;9.114;2023-04-24T09:09:00;1.23;;;1.23;;
9124;SDS011;4597;48.730;9.114;2023-04-24T09:11:27;1.00;;;1.00;;
9124;SDS011;4597;48.730;9.114;2023-04-24T09:13:53;2.70;;;1.10;;
9124;SDS011;4597;48.730;9.114;2023-04-24T09:16:20;0.80;;;0.80;;
9124;SDS011;4597;48.730;9.114;2023-04-24T09:18:48;2.47;;;1.40;;
9124;SDS011;4597;48.730;9.114;2023-04-24T09:21:13;2.17;;;1.50;;
9124;SDS011;4597;48.730;9.114;2023-04-24T09:23:39;1.73;;;1.57;;
9124;SDS011;4597;48.730;9.114;2023-04-24T09:26:06;2.40;;;1.70;;
9124;SDS011;4597;48.730;9.114;2023-04-24T09:28:37;1.70;;;1.30;;
9124;SDS011;4597;48.730;9.114;2023-04-24T09:31:14;1.73;;;1.50;;
9124;SDS011;4597;48.730;9.114;2023-04-24T09:36:58;1.70;;;1.40;;
9124;SDS011;4597;48.730;9.114;2023-04-24T09:39:17;1.13;;;1.13;;
9124;SDS011;4597;48.730;9.114;2023-04-24T09:41:52;1.77;;;1.20;;
9124;SDS011;4597;48.730;9.114;2023-04-24T09:44:20;1.63;;;1.53;;
9124;SDS011;4597;48.730;9.114;2023-04-24T09:46:50;1.40;;;1.30;;
9124;SDS011;4597;48.730;9.114;2023-04-24T09:49:22;2.03;;;1.40;;
9124;SDS011;4597;48.730;9.114;2023-04-24T09:51:49;1.40;;;1.30;;
9124;SDS011;4597;48.730;9.114;2023-04-24T09:54:15;2.03;;;1.30;;
9124;SDS011;4597;48.730;9.114;2023-04-24T09:56:48;1.37;;;1.27;;
9124;SDS011;4597;48.730;9.114;2023-04-24T09:59:17;1.17;;;1.17;;
9124;SDS011;4597;48.730;9.114;2023-04-24T10:01:44;1.47;;;1.40;;
9124;SDS011;4597;48.730;9.114;2023-04-24T10:04:19;1.90;;;1.40;;
9124;SDS011;4597;48.730;9.114;2023-04-24T10:06:47;1.20;;;1.20;;
9124;SDS011;4597;48.730;9.114;2023-04-24T10:09:14;3.23;;;1.63;;
9124;SDS011;4597;48.730;9.114;2023-04-24T10:11:41;1.80;;;1.70;;
9124;SDS011;4597;48.730;9.114;2023-04-24T10:14:15;3.30;;;1.53;;
9124;SDS011;4597;48.730;9.114;2023-04-24T10:16:43;2.60;;;1.63;;
9124;SDS011;4597;48.730;9.114;2023-04-24T10:19:09;2.43;;;2.00;;
9124;SDS011;4597;48.730;9.114;2023-04-24T10:21:36;2.00;;;1.80;;
9124;SDS011;4597;48.730;9.114;2023-04-24T10:24:07;8.30;;;1.87;;
9124;SDS011;4597;48.730;9.114;2023-04-24T10:26:34;2.73;;;1.63;;
9124;SDS011;4597;48.730;9.114;2023-04-24T10:29:00;3.00;;;2.07;;
9124;SDS011;4597;48.730;9.114;2023-04-24T10:31:26;3.67;;;1.90;;
9124;SDS011;4597;48.730;9.114;2023-04-24T10:33:55;2.07;;;1.80;;
9124;SDS011;4597;48.730;9.114;2023-04-24T10:36:23;2.43;;;1.60;;
9124;SDS011;4597;48.730;9.114;2023-04-24T10:38:51;2.53;;;1.60;;
9124;SDS011;4597;48.730;9.114;2023-04-24T10:41:19;2.17;;;1.63;;
9124;SDS011;4597;48.730;9.114;2023-04-24T10:43:48;1.53;;;1.33;;
9124;SDS011;4597;48.730;9.114;2023-04-24T10:46:29;1.67;;;1.57;;
9124;SDS011;4597;48.730;9.114;2023-04-24T10:48:55;1.70;;;1.60;;
9124;SDS011;4597;48.730;9.114;2023-04-24T10:51:23;1.80;;;1.70;;
9124;SDS011;4597;48.730;9.114;2023-04-24T10:53:50;3.33;;;1.73;;
9124;SDS011;4597;48.730;9.114;2023-04-24T10:56:16;2.03;;;1.80;;
9124;SDS011;4597;48.730;9.114;2023-04-24T10:58:43;4.53;;;1.83;;
9124;SDS011;4597;48.730;9.114;2023-04-24T11:01:30;1.47;;;1.37;;
9124;SDS011;4597;48.730;9.114;2023-04-24T11:03:58;1.63;;;1.50;;
9124;SDS011;4597;48.730;9.114;2023-04-24T11:06:36;1.40;;;1.30;;
9124;SDS011;4597;48.730;9.114;2023-04-24T11:09:02;1.63;;;1.53;;
9124;SDS011;4597;48.730;9.114;2023-04-24T11:11:29;2.57;;;1.80;;
9124;SDS011;4597;48.730;9.114;2023-04-24T11:16:21;1.90;;;1.80;;
9124;SDS011;4597;48.730;9.114;2023-04-24T11:21:32;2.30;;;1.70;;
9124;SDS011;4597;48.730;9.114;2023-04-24T11:26:54;2.13;;;1.43;;
9124;SDS011;4597;48.730;9.114;2023-04-24T11:29:21;1.60;;;1.50;;
9124;SDS011;4597;48.730;9.114;2023-04-24T11:31:48;1.90;;;1.70;;
9124;SDS011;4597;48.730;9.114;2023-04-24T11:34:16;1.90;;;1.40;;
9124;SDS011;4597;48.730;9.114;2023-04-24T11:36:43;1.57;;;1.47;;
9124;SDS011;4597;48.730;9.114;2023-04-24T11:39:10;2.13;;;2.03;;
9124;SDS011;4597;48.730;9.114;2023-04-24T11:41:37;2.97;;;2.00;;
9124;SDS011;4597;48.730;9.114;2023-04-24T11:44:03;2.23;;;2.03;;
9124;SDS011;4597;48.730;9.114;2023-04-24T11:46:32;2.23;;;1.80;;
9124;SDS011;4597;48.730;9.114;2023-04-24T11:48:57;3.60;;;1.90;;
9124;SDS011;4597;48.730;9.114;2023-04-24T11:51:24;1.90;;;1.70;;
9124;SDS011;4597;48.730;9.114;2023-04-24T11:53:51;2.83;;;2.60;;
9124;SDS011;4597;48.730;9.114;2023-04-24T11:56:18;2.37;;;2.17;;
9124;SDS011;4597;48.730;9.114;2023-04-24T11:58:44;2.23;;;2.13;;
9124;SDS011;4597;48.730;9.114;2023-04-24T12:01:11;3.13;;;2.20;;
9124;SDS011;4597;48.730;9.114;2023-04-24T12:03:37;3.27;;;2.30;;
9124;SDS011;4597;48.730;9.114;2023-04-24T12:06:06;1.90;;;1.80;;
9124;SDS011;4597;48.730;9.114;2023-04-24T12:08:37;1.90;;;1.70;;
9124;SDS011;4597;48.730;9.114;2023-04-24T12:11:03;2.10;;;1.90;;
9124;SDS011;4597;48.730;9.114;2023-04-24T12:13:30;1.83;;;1.73;;
9124;SDS011;4597;48.730;9.114;2023-04-24T12:15:59;1.80;;;1.70;;
9124;SDS011;4597;48.730;9.114;2023-04-24T12:18:26;1.70;;;1.60;;
9124;SDS011;4597;48.730;9.114;2023-04-24T12:20:52;2.17;;;2.00;;
9124;SDS011;4597;48.730;9.114;2023-04-24T12:23:33;3.03;;;1.70;;
9124;SDS011;4597;48.730;9.114;2023-04-24T12:26:00;3.20;;;1.70;;
9124;SDS011;4597;48.730;9.114;2023-04-24T12:28:34;2.07;;;1.93;;
9124;SDS011;4597;48.730;9.114;2023-04-24T12:31:01;2.00;;;1.83;;
9124;SDS011;4597;48.730;9.114;2023-04-24T12:33:27;2.07;;;1.70;;
9124;SDS011;4597;48.730;9.114;2023-04-24T12:35:53;2.13;;;1.83;;
9124;SDS011;4597;48.730;9.114;2023-04-24T12:38:22;3.30;;;2.00;;
9124;SDS011;4597;48.730;9.114;2023-04-24T12:41:00;2.57;;;2.37;;
9124;SDS011;4597;48.730;9.114;2023-04-24T12:43:30;2.73;;;2.10;;
9124;SDS011;4597;48.730;9.114;2023-04-24T12:45:56;2.27;;;2.07;;
9124;SDS011;4597;48.730;9.114;2023-04-24T12:48:22;2.50;;;2.30;;
9124;SDS011;4597;48.730;9.114;2023-04-24T12:50:47;3.23;;;2.40;;
9124;SDS011;4597;48.730;9.114;2023-04-24T12:53:13;2.40;;;2.20;;
9124;SDS011;4597;48.730;9.114;2023-04-24T12:55:40;2.30;;;2.10;;
9124;SDS011;4597;48.730;9.114;2023-04-24T12:58:05;1.83;;;1.73;;
9124;SDS011;4597;48.730;9.114;2023-04-24T13:00:31;2.90;;;1.87;;
9124;SDS011;4597;48.730;9.114;2023-04-24T13:02:57;2.07;;;1.93;;
9124;SDS011;4597;48.730;9.114;2023-04-24T13:05:22;2.20;;;1.80;;
9124;SDS011;4597;48.730;9.114;2023-04-24T13:07:48;2.00;;;1.90;;
9124;SDS011;4597;48.730;9.114;2023-04-24T13:10:13;2.27;;;2.10;;
9124;SDS011;4597;48.730;9.114;2023-04-24T13:12:39;2.10;;;2.00;;
9124;SDS011;4597;48.730;9.114;2023-04-24T13:15:05;2.23;;;2.07;;
9124;SDS011;4597;48.730;9.114;2023-04-24T13:17:31;2.33;;;2.13;;
9124;SDS011;4597;48.730;9.114;2023-04-24T13:19:58;2.60;;;2.40;;
9124;SDS011;4597;48.730;9.114;2023-04-24T13:22:23;3.67;;;2.20;;
9124;SDS011;4597;48.730;9.114;2023-04-24T13:24:49;2.47;;;2.20;;
9124;SDS011;4597;48.730;9.114;2023-04-24T13:27:15;2.30;;;2.20;;
9124;SDS011;4597;48.730;9.114;2023-04-24T13:29:41;3.47;;;2.13;;
9124;SDS011;4597;48.730;9.114;2023-04-24T13:32:07;3.10;;;2.30;;
9124;SDS011;4597;48.730;9.114;2023-04-24T13:34:33;2.40;;;2.30;;
9124;SDS011;4597;48.730;9.114;2023-04-24T13:36:59;3.87;;;2.67;;
9124;SDS011;4597;48.730;9.114;2023-04-24T13:39:25;5.40;;;2.33;;
9124;SDS011;4597;48.730;9.114;2023-04-24T13:41:51;2.23;;;2.00;;
9124;SDS011;4597;48.730;9.114;2023-04-24T13:44:18;2.43;;;2.17;;
9124;SDS011;4597;48.730;9.114;2023-04-24T13:46:45;2.33;;;2.03;;
9124;SDS011;4597;48.730;9.114;2023-04-24T13:49:13;2.33;;;2.23;;
9124;SDS011;4597;48.730;9.114;2023-04-24T13:51:39;2.20;;;1.97;;
9124;SDS011;4597;48.730;9.114;2023-04-24T13:54:05;2.27;;;2.07;;
9124;SDS011;4597;48.730;9.114;2023-04-24T13:56:31;3.10;;;2.00;;
9124;SDS011;4597;48.730;9.114;2023-04-24T13:58:56;2.23;;;2.00;;
9124;SDS011;4597;48.730;9.114;2023-04-24T14:01:22;2.70;;;2.50;;
9124;SDS011;4597;48.730;9.114;2023-04-24T14:03:52;2.50;;;2.30;;
9124;SDS011;4597;48.730;9.114;2023-04-24T14:06:18;2.70;;;2.10;;
9124;SDS011;4597;48.730;9.114;2023-04-24T14:08:44;2.40;;;2.20;;
9124;SDS011;4597;48.730;9.114;2023-04-24T14:11:10;2.03;;;1.93;;
9124;SDS011;4597;48.730;9.114;2023-04-24T14:13:36;2.00;;;1.90;;
9124;SDS011;4597;48.730;9.114;2023-04-24T14:16:02;2.00;;;1.90;;
9124;SDS011;4597;48.730;9.114;2023-04-24T14:18:28;2.70;;;2.50;;
9124;SDS011;4597;48.730;9.114;2023-04-24T14:20:54;2.27;;;2.17;;
9124;SDS011;4597;48.730;9.114;2023-04-24T14:23:20;2.30;;;2.10;;
9124;SDS011;4597;48.730;9.114;2023-04-24T14:25:45;3.73;;;2.00;;
9124;SDS011;4597;48.730;9.114;2023-04-24T14:28:13;1.97;;;1.87;;
9124;SDS011;4597;48.730;9.114;2023-04-24T14:30:38;2.33;;;2.10;;
9124;SDS011;4597;48.730;9.114;2023-04-24T14:33:05;2.67;;;1.93;;
9124;SDS011;4597;48.730;9.114;2023-04-24T14:35:31;1.90;;;1.80;;
9124;SDS011;4597;48.730;9.114;2023-04-24T14:37:57;1.80;;;1.80;;
9124;SDS011;4597;48.730;9.114;2023-04-24T14:40:23;2.63;;;1.87;;
9124;SDS011;4597;48.730;9.114;2023-04-24T14:42:49;1.73;;;1.63;;
9124;SDS011;4597;48.730;9.114;2023-04-24T14:45:15;1.83;;;1.73;;
9124;SDS011;4597;48.730;9.114;2023-04-24T14:47:41;1.80;;;1.67;;
9124;SDS011;4597;48.730;9.114;2023-04-24T14:50:06;1.60;;;1.50;;
9124;SDS011;4597;48.730;9.114;2023-04-24T14:52:33;1.90;;;1.80;;
9124;SDS011;4597;48.730;9.114;2023-04-24T14:54:58;1.63;;;1.53;;
9124;SDS011;4597;48.730;9.114;2023-04-24T14:57:24;2.27;;;1.70;;
9124;SDS011;4597;48.730;9.114;2023-04-24T14:59:50;1.93;;;1.80;;
9124;SDS011;4597;48.730;9.114;2023-04-24T15:02:15;2.23;;;2.13;;
9124;SDS011;4597;48.730;9.114;2023-04-24T15:04:41;2.13;;;1.90;;
9124;SDS011;4597;48.730;9.114;2023-04-24T15:07:06;2.00;;;1.90;;
9124;SDS011;4597;48.730;9.114;2023-04-24T15:09:32;1.80;;;1.70;;
9124;SDS011;4597;48.730;9.114;2023-04-24T15:11:57;2.80;;;1.90;;
9124;SDS011;4597;48.730;9.114;2023-04-24T15:14:23;1.90;;;1.80;;
9124;SDS011;4597;48.730;9.114;2023-04-24T15:16:49;2.20;;;2.00;;
9124;SDS011;4597;48.730;9.114;2023-04-24T15:19:14;1.60;;;1.60;;
9124;SDS011;4597;48.730;9.114;2023-04-24T15:21:40;1.50;;;1.50;;